createdAt,value
2019-03-10T00:00:08.393Z,81.10
2019-03-10T00:00:20.199Z,81.00
2019-03-10T00:00:31.945Z,80.90
2019-03-10T00:00:43.758Z,81.00
2019-03-10T00:00:55.513Z,80.90
2019-03-10T00:01:07.288Z,80.90
2019-03-10T00:01:19.050Z,81.00
2019-03-10T00:01:33.158Z,80.90
2019-03-10T00:01:44.928Z,80.90
2019-03-10T00:01:56.740Z,81.40
2019-03-10T00:02:10.437Z,81.10
2019-03-10T00:02:20.370Z,81.40
2019-03-10T00:02:32.152Z,81.30
2019-03-10T00:02:43.920Z,81.30
2019-03-10T00:02:55.752Z,81.30
2019-03-10T00:03:07.501Z,81.10
2019-03-10T00:03:21.612Z,81.00
2019-03-10T00:03:33.376Z,80.70
2019-03-10T00:03:45.154Z,81.10
2019-03-10T00:03:57.044Z,80.90
2019-03-10T00:04:08.812Z,81.00
2019-03-10T00:04:20.612Z,80.90
2019-03-10T00:04:32.451Z,80.70
2019-03-10T00:04:44.251Z,81.00
2019-03-10T00:04:56.045Z,80.90
2019-03-10T00:05:07.819Z,80.90
2019-03-10T00:05:19.643Z,80.70
2019-03-10T00:05:31.409Z,80.90
2019-03-10T00:05:43.163Z,80.60
2019-03-10T00:05:54.944Z,80.70
2019-03-10T00:06:06.754Z,80.70
2019-03-10T00:06:18.557Z,80.60
2019-03-10T00:06:30.352Z,80.60
2019-03-10T00:06:42.122Z,80.70
2019-03-10T00:06:56.242Z,80.60
2019-03-10T00:07:08.050Z,80.50
2019-03-10T00:07:19.784Z,80.40
2019-03-10T00:07:31.560Z,80.30
2019-03-10T00:07:43.365Z,80.50
2019-03-10T00:07:55.109Z,80.60
2019-03-10T00:08:07.979Z,80.60
2019-03-10T00:08:21.006Z,80.70
2019-03-10T00:08:32.788Z,80.60
2019-03-10T00:08:44.555Z,80.70
2019-03-10T00:08:56.363Z,80.30
2019-03-10T00:09:08.209Z,80.60
2019-03-10T00:09:20.103Z,80.60
2019-03-10T00:09:31.883Z,80.60
2019-03-10T00:09:43.638Z,80.70
2019-03-10T00:09:55.415Z,80.70
2019-03-10T00:10:07.279Z,80.50
2019-03-10T00:10:19.064Z,80.60
2019-03-10T00:10:30.829Z,80.50
2019-03-10T00:10:42.586Z,80.60
2019-03-10T00:10:54.350Z,80.70
2019-03-10T00:11:06.202Z,80.70
2019-03-10T00:11:18.001Z,80.70
2019-03-10T00:11:29.875Z,80.80
2019-03-10T00:11:41.650Z,80.70
2019-03-10T00:11:55.781Z,80.30
2019-03-10T00:12:09.875Z,80.30
2019-03-10T00:12:21.625Z,80.10
2019-03-10T00:12:33.431Z,79.90
2019-03-10T00:12:45.277Z,80.00
2019-03-10T00:12:57.054Z,80.30
2019-03-10T00:13:08.849Z,80.00
2019-03-10T00:13:20.622Z,80.30
2019-03-10T00:13:32.469Z,80.20
2019-03-10T00:13:44.240Z,80.10
2019-03-10T00:13:56.017Z,80.30
2019-03-10T00:14:07.799Z,80.10
2019-03-10T00:14:19.655Z,80.10
2019-03-10T00:14:33.775Z,80.90
2019-03-10T00:14:45.537Z,79.90
2019-03-10T00:14:57.293Z,80.30
2019-03-10T00:15:09.109Z,80.10
2019-03-10T00:15:20.913Z,80.30
2019-03-10T00:15:32.747Z,80.20
2019-03-10T00:15:44.536Z,80.10
2019-03-10T00:15:56.305Z,80.00
2019-03-10T00:16:08.069Z,80.30
2019-03-10T00:16:19.838Z,80.40
2019-03-10T00:16:31.611Z,80.30
2019-03-10T00:16:43.374Z,80.20
2019-03-10T00:16:55.188Z,80.10
2019-03-10T00:17:07.033Z,80.10
2019-03-10T00:17:18.807Z,79.90
2019-03-10T00:17:30.574Z,80.10
2019-03-10T00:17:42.459Z,80.00
2019-03-10T00:17:54.225Z,80.00
2019-03-10T00:18:05.993Z,80.00
2019-03-10T00:18:17.749Z,80.00
2019-03-10T00:18:29.540Z,79.80
2019-03-10T00:18:41.309Z,79.80
2019-03-10T00:18:53.091Z,79.80
2019-03-10T00:19:04.921Z,79.80
2019-03-10T00:19:16.747Z,79.70
2019-03-10T00:19:28.590Z,80.00
2019-03-10T00:19:43.089Z,79.80
2019-03-10T00:19:52.933Z,79.90
2019-03-10T00:20:07.154Z,80.00
2019-03-10T00:20:18.918Z,80.10
2019-03-10T00:20:33.039Z,80.10
2019-03-10T00:20:44.804Z,80.10
2019-03-10T00:20:56.644Z,80.10
2019-03-10T00:21:08.419Z,80.00
2019-03-10T00:21:20.348Z,80.20
2019-03-10T00:21:32.147Z,80.00
2019-03-10T00:21:43.945Z,80.40
2019-03-10T00:21:55.858Z,80.30
2019-03-10T00:22:07.613Z,80.20
2019-03-10T00:22:19.442Z,80.50
2019-03-10T00:22:31.212Z,80.70
2019-03-10T00:22:42.989Z,80.90
2019-03-10T00:22:54.745Z,80.90
2019-03-10T00:23:06.519Z,80.90
2019-03-10T00:23:18.342Z,80.80
2019-03-10T00:23:30.160Z,80.80
2019-03-10T00:23:44.286Z,80.90
2019-03-10T00:23:56.063Z,80.70
2019-03-10T00:24:07.846Z,80.80
2019-03-10T00:24:19.619Z,80.80
2019-03-10T00:24:31.419Z,80.80
2019-03-10T00:24:43.194Z,80.80
2019-03-10T00:24:54.940Z,81.30
2019-03-10T00:25:06.697Z,81.20
2019-03-10T00:25:18.480Z,81.90
2019-03-10T00:25:30.257Z,81.10
2019-03-10T00:25:42.031Z,81.10
2019-03-10T00:25:53.792Z,81.00
2019-03-10T00:26:05.562Z,81.20
2019-03-10T00:26:17.333Z,81.30
2019-03-10T00:26:29.152Z,81.30
2019-03-10T00:26:43.265Z,81.30
2019-03-10T00:26:55.049Z,81.10
2019-03-10T00:27:06.817Z,81.50
2019-03-10T00:27:18.671Z,81.50
2019-03-10T00:27:30.421Z,81.40
2019-03-10T00:27:42.191Z,81.60
2019-03-10T00:27:53.952Z,81.70
2019-03-10T00:28:08.062Z,81.50
2019-03-10T00:28:19.834Z,82.30
2019-03-10T00:28:31.610Z,81.60
2019-03-10T00:28:43.456Z,81.80
2019-03-10T00:28:55.258Z,82.00
2019-03-10T00:29:07.031Z,81.70
2019-03-10T00:29:18.820Z,81.70
2019-03-10T00:29:31.750Z,81.70
2019-03-10T00:29:43.598Z,81.80
2019-03-10T00:29:58.438Z,81.90
2019-03-10T00:30:10.246Z,81.70
2019-03-10T00:30:22.042Z,81.70
2019-03-10T00:30:33.790Z,82.10
2019-03-10T00:30:47.935Z,82.20
2019-03-10T00:30:59.698Z,82.10
2019-03-10T00:31:11.479Z,82.20
2019-03-10T00:31:23.253Z,82.00
2019-03-10T00:31:37.346Z,82.20
2019-03-10T00:31:49.158Z,82.10
2019-03-10T00:32:00.911Z,82.20
2019-03-10T00:32:12.739Z,82.30
2019-03-10T00:32:24.514Z,82.30
2019-03-10T00:32:36.340Z,82.10
2019-03-10T00:32:48.117Z,82.20
2019-03-10T00:32:59.941Z,82.10
2019-03-10T00:33:11.692Z,82.10
2019-03-10T00:33:25.853Z,82.20
2019-03-10T00:33:37.617Z,82.20
2019-03-10T00:33:49.382Z,82.20
2019-03-10T00:34:03.565Z,82.10
2019-03-10T00:34:16.750Z,82.00
2019-03-10T00:34:27.214Z,82.30
2019-03-10T00:34:41.336Z,82.30
2019-03-10T00:34:55.392Z,82.30
2019-03-10T00:35:07.155Z,82.30
2019-03-10T00:35:18.907Z,82.50
2019-03-10T00:35:30.676Z,82.50
2019-03-10T00:35:42.431Z,82.40
2019-03-10T00:35:56.542Z,82.40
2019-03-10T00:36:08.394Z,82.20
2019-03-10T00:36:20.150Z,82.50
2019-03-10T00:36:31.933Z,82.50
2019-03-10T00:36:43.751Z,82.50
2019-03-10T00:36:55.513Z,82.50
2019-03-10T00:37:07.274Z,82.40
2019-03-10T00:37:19.017Z,82.50
2019-03-10T00:37:30.771Z,82.50
2019-03-10T00:37:44.877Z,82.50
2019-03-10T00:37:56.642Z,82.30
2019-03-10T00:38:08.439Z,82.30
2019-03-10T00:38:20.230Z,82.30
2019-03-10T00:38:32.008Z,82.30
2019-03-10T00:38:46.146Z,82.40
2019-03-10T00:38:57.913Z,82.30
2019-03-10T00:39:12.052Z,82.80
2019-03-10T00:39:23.822Z,82.60
2019-03-10T00:39:37.965Z,83.50
2019-03-10T00:39:49.710Z,82.50
2019-03-10T00:40:01.463Z,82.50
2019-03-10T00:40:13.235Z,82.70
2019-03-10T00:40:25.166Z,82.80
2019-03-10T00:40:36.945Z,82.70
2019-03-10T00:40:48.698Z,82.80
2019-03-10T00:41:00.464Z,82.90
2019-03-10T00:41:12.238Z,82.90
2019-03-10T00:41:24.045Z,83.80
2019-03-10T00:41:38.168Z,83.00
2019-03-10T00:41:50.043Z,82.90
2019-03-10T00:42:04.153Z,83.10
2019-03-10T00:42:15.930Z,83.00
2019-03-10T00:42:27.762Z,83.10
2019-03-10T00:42:39.555Z,83.10
2019-03-10T00:42:51.330Z,83.10
2019-03-10T00:43:03.143Z,83.30
2019-03-10T00:43:14.899Z,83.10
2019-03-10T00:43:26.738Z,83.00
2019-03-10T00:43:38.507Z,83.10
2019-03-10T00:43:50.291Z,83.00
2019-03-10T00:44:02.147Z,83.00
2019-03-10T00:44:13.933Z,82.90
2019-03-10T00:44:25.716Z,83.00
2019-03-10T00:44:37.592Z,83.10
2019-03-10T00:44:49.352Z,83.00
2019-03-10T00:45:01.133Z,83.10
2019-03-10T00:45:12.952Z,83.10
2019-03-10T00:45:24.737Z,83.10
2019-03-10T00:45:36.542Z,83.00
2019-03-10T00:45:48.326Z,83.10
2019-03-10T00:46:00.103Z,83.10
2019-03-10T00:46:14.243Z,83.60
2019-03-10T00:46:26.010Z,83.20
2019-03-10T00:46:37.782Z,83.40
2019-03-10T00:46:49.548Z,83.30
2019-03-10T00:47:01.468Z,83.30
2019-03-10T00:47:13.252Z,83.30
2019-03-10T00:47:25.059Z,83.30
2019-03-10T00:47:36.826Z,83.30
2019-03-10T00:47:48.611Z,83.30
2019-03-10T00:48:00.387Z,83.40
2019-03-10T00:48:12.153Z,83.30
2019-03-10T00:48:23.917Z,83.60
2019-03-10T00:48:35.725Z,83.80
2019-03-10T00:48:47.548Z,83.70
2019-03-10T00:48:59.349Z,83.70
2019-03-10T00:49:11.102Z,83.90
2019-03-10T00:49:22.931Z,84.00
2019-03-10T00:49:34.770Z,84.00
2019-03-10T00:49:46.569Z,84.00
2019-03-10T00:49:58.333Z,84.00
2019-03-10T00:50:10.086Z,84.00
2019-03-10T00:50:22.963Z,84.00
2019-03-10T00:50:34.741Z,84.10
2019-03-10T00:50:46.519Z,84.60
2019-03-10T00:50:58.280Z,84.20
2019-03-10T00:51:10.057Z,85.00
2019-03-10T00:51:21.819Z,84.20
2019-03-10T00:51:34.467Z,84.10
2019-03-10T00:51:45.361Z,84.20
2019-03-10T00:51:57.500Z,84.00
2019-03-10T00:52:09.348Z,84.00
2019-03-10T00:52:21.111Z,84.10
2019-03-10T00:52:32.964Z,84.00
2019-03-10T00:52:44.745Z,84.10
2019-03-10T00:52:56.523Z,84.00
2019-03-10T00:53:08.296Z,84.10
2019-03-10T00:53:20.054Z,84.30
2019-03-10T00:53:31.834Z,84.30
2019-03-10T00:53:43.601Z,84.40
2019-03-10T00:53:55.357Z,84.40
2019-03-10T00:54:09.446Z,84.70
2019-03-10T00:54:21.212Z,84.60
2019-03-10T00:54:33.040Z,84.50
2019-03-10T00:54:47.179Z,84.50
2019-03-10T00:54:58.961Z,84.40
2019-03-10T00:55:11.040Z,84.40
2019-03-10T00:55:22.808Z,84.40
2019-03-10T00:55:36.888Z,84.60
2019-03-10T00:55:48.633Z,84.40
2019-03-10T00:56:00.391Z,84.40
2019-03-10T00:56:12.154Z,84.40
2019-03-10T00:56:23.911Z,84.70
2019-03-10T00:56:35.669Z,84.80
2019-03-10T00:56:47.450Z,84.70
2019-03-10T00:56:59.267Z,84.80
2019-03-10T00:57:13.371Z,85.00
2019-03-10T00:57:25.124Z,84.80
2019-03-10T00:57:36.888Z,84.90
2019-03-10T00:57:48.655Z,85.00
2019-03-10T00:58:03.599Z,85.10
2019-03-10T00:58:15.348Z,85.10
2019-03-10T00:58:27.109Z,85.20
2019-03-10T00:58:38.877Z,85.30
2019-03-10T00:58:50.693Z,85.20
2019-03-10T00:59:02.446Z,85.20
2019-03-10T00:59:14.209Z,85.20
2019-03-10T00:59:26.049Z,85.30
2019-03-10T00:59:37.862Z,85.30
2019-03-10T00:59:49.697Z,85.30
2019-03-10T01:00:01.544Z,85.40
2019-03-10T01:00:13.349Z,85.50
2019-03-10T01:00:25.271Z,85.50
2019-03-10T01:00:37.047Z,85.40
2019-03-10T01:00:48.797Z,85.40
2019-03-10T01:01:00.552Z,85.40
2019-03-10T01:01:12.312Z,85.40
2019-03-10T01:01:24.082Z,85.50
2019-03-10T01:01:35.846Z,85.50
2019-03-10T01:01:47.618Z,85.60
2019-03-10T01:01:59.452Z,85.90
2019-03-10T01:02:11.210Z,86.10
2019-03-10T01:02:22.978Z,85.80
2019-03-10T01:02:34.735Z,85.80
2019-03-10T01:02:48.835Z,85.90
2019-03-10T01:03:00.588Z,85.80
2019-03-10T01:03:12.397Z,85.80
2019-03-10T01:03:24.167Z,86.00
2019-03-10T01:03:35.946Z,86.00
2019-03-10T01:03:47.715Z,86.00
2019-03-10T01:03:59.495Z,86.00
2019-03-10T01:04:11.374Z,86.00
2019-03-10T01:04:23.152Z,86.00
2019-03-10T01:04:34.950Z,86.20
2019-03-10T01:04:49.084Z,86.30
2019-03-10T01:05:00.842Z,86.20
2019-03-10T01:05:12.586Z,86.20
2019-03-10T01:05:24.464Z,86.30
2019-03-10T01:05:36.261Z,86.20
2019-03-10T01:05:48.046Z,86.40
2019-03-10T01:05:59.874Z,86.40
2019-03-10T01:06:11.648Z,86.40
2019-03-10T01:06:23.448Z,86.40
2019-03-10T01:06:35.243Z,86.30
2019-03-10T01:06:47.048Z,86.30
2019-03-10T01:06:58.816Z,86.30
2019-03-10T01:07:10.646Z,86.30
2019-03-10T01:07:22.476Z,87.20
2019-03-10T01:07:34.271Z,86.60
2019-03-10T01:07:46.086Z,86.60
2019-03-10T01:07:57.870Z,86.70
2019-03-10T01:08:09.636Z,86.70
2019-03-10T01:08:21.447Z,86.70
2019-03-10T01:08:33.217Z,86.70
2019-03-10T01:08:44.993Z,86.60
2019-03-10T01:08:56.764Z,86.70
2019-03-10T01:09:08.529Z,86.50
2019-03-10T01:09:20.369Z,86.50
2019-03-10T01:09:32.154Z,86.50
2019-03-10T01:09:43.935Z,86.50
2019-03-10T01:09:55.762Z,86.40
2019-03-10T01:10:07.702Z,86.30
2019-03-10T01:10:19.560Z,86.30
2019-03-10T01:10:31.304Z,86.30
2019-03-10T01:10:45.446Z,86.30
2019-03-10T01:10:57.240Z,86.20
2019-03-10T01:11:09.023Z,86.30
2019-03-10T01:11:20.795Z,86.40
2019-03-10T01:11:32.572Z,86.30
2019-03-10T01:11:44.361Z,86.40
2019-03-10T01:11:56.130Z,86.50
2019-03-10T01:12:10.254Z,86.50
2019-03-10T01:12:22.006Z,86.40
2019-03-10T01:12:36.137Z,86.70
2019-03-10T01:12:47.946Z,86.60
2019-03-10T01:12:59.713Z,86.70
2019-03-10T01:13:11.513Z,86.50
2019-03-10T01:13:23.368Z,86.40
2019-03-10T01:13:35.611Z,86.60
2019-03-10T01:13:47.456Z,86.60
2019-03-10T01:13:59.245Z,86.40
2019-03-10T01:14:11.022Z,86.30
2019-03-10T01:14:22.852Z,87.10
2019-03-10T01:14:34.616Z,86.20
2019-03-10T01:14:48.779Z,86.30
2019-03-10T01:15:00.605Z,86.30
2019-03-10T01:15:12.466Z,86.20
2019-03-10T01:15:24.254Z,86.50
2019-03-10T01:15:36.028Z,86.40
2019-03-10T01:15:47.798Z,86.50
2019-03-10T01:15:59.658Z,86.30
2019-03-10T01:16:11.538Z,86.60
2019-03-10T01:16:23.297Z,86.50
2019-03-10T01:16:35.151Z,86.50
2019-03-10T01:16:46.953Z,86.40
2019-03-10T01:16:58.726Z,86.40
2019-03-10T01:17:10.494Z,86.40
2019-03-10T01:17:22.277Z,86.40
2019-03-10T01:17:34.043Z,86.40
2019-03-10T01:17:45.837Z,86.30
2019-03-10T01:17:57.620Z,86.40
2019-03-10T01:18:09.393Z,86.40
2019-03-10T01:18:21.155Z,86.40
2019-03-10T01:18:32.951Z,86.30
2019-03-10T01:18:44.740Z,86.30
2019-03-10T01:18:56.550Z,86.40
2019-03-10T01:19:08.353Z,86.50
2019-03-10T01:19:20.123Z,86.40
2019-03-10T01:19:31.886Z,86.30
2019-03-10T01:19:46.082Z,86.30
2019-03-10T01:19:57.893Z,86.30
2019-03-10T01:20:12.034Z,86.00
2019-03-10T01:20:23.756Z,86.00
2019-03-10T01:20:35.519Z,86.30
2019-03-10T01:20:47.351Z,85.90
2019-03-10T01:21:01.462Z,85.90
2019-03-10T01:21:13.243Z,85.80
2019-03-10T01:21:25.045Z,86.80
2019-03-10T01:21:39.264Z,86.00
2019-03-10T01:21:51.034Z,85.90
2019-03-10T01:22:02.872Z,86.10
2019-03-10T01:22:14.640Z,86.80
2019-03-10T01:22:26.474Z,85.90
2019-03-10T01:22:40.605Z,85.90
2019-03-10T01:22:52.449Z,85.80
2019-03-10T01:23:04.238Z,85.80
2019-03-10T01:23:15.986Z,85.80
2019-03-10T01:23:27.786Z,85.70
2019-03-10T01:23:39.568Z,85.60
2019-03-10T01:23:51.343Z,85.60
2019-03-10T01:24:03.103Z,85.60
2019-03-10T01:24:14.858Z,85.50
2019-03-10T01:24:26.655Z,85.60
2019-03-10T01:24:38.447Z,85.40
2019-03-10T01:24:50.226Z,85.30
2019-03-10T01:25:02.021Z,85.20
2019-03-10T01:25:16.178Z,86.10
2019-03-10T01:25:27.945Z,85.30
2019-03-10T01:25:39.747Z,85.10
2019-03-10T01:25:51.520Z,85.00
2019-03-10T01:26:03.290Z,85.00
2019-03-10T01:26:15.051Z,85.10
2019-03-10T01:26:26.845Z,85.00
2019-03-10T01:26:38.646Z,84.90
2019-03-10T01:26:50.543Z,85.00
2019-03-10T01:27:02.432Z,84.80
2019-03-10T01:27:14.257Z,85.80
2019-03-10T01:27:26.038Z,85.10
2019-03-10T01:27:37.803Z,84.80
2019-03-10T01:27:49.553Z,84.90
2019-03-10T01:28:03.659Z,84.70
2019-03-10T01:28:15.466Z,84.70
2019-03-10T01:28:27.249Z,85.00
2019-03-10T01:28:39.043Z,85.70
2019-03-10T01:28:50.804Z,84.80
2019-03-10T01:29:02.973Z,84.70
2019-03-10T01:29:14.748Z,84.70
2019-03-10T01:29:26.559Z,84.70
2019-03-10T01:29:38.346Z,84.70
2019-03-10T01:29:50.112Z,84.50
2019-03-10T01:30:01.948Z,84.50
2019-03-10T01:30:13.697Z,85.10
2019-03-10T01:30:25.566Z,84.40
2019-03-10T01:30:37.316Z,84.30
2019-03-10T01:30:49.156Z,84.50
2019-03-10T01:31:00.919Z,84.50
2019-03-10T01:31:12.743Z,84.90
2019-03-10T01:31:24.552Z,85.30
2019-03-10T01:31:36.316Z,84.80
2019-03-10T01:31:48.094Z,84.60
2019-03-10T01:31:59.847Z,84.60
2019-03-10T01:32:11.620Z,85.00
2019-03-10T01:32:23.385Z,86.00
2019-03-10T01:32:35.243Z,85.10
2019-03-10T01:32:47.054Z,85.00
2019-03-10T01:32:58.804Z,85.10
2019-03-10T01:33:12.948Z,85.00
2019-03-10T01:33:24.747Z,85.00
2019-03-10T01:33:36.539Z,85.10
2019-03-10T01:33:48.353Z,84.90
2019-03-10T01:34:00.104Z,84.90
2019-03-10T01:34:11.853Z,85.10
2019-03-10T01:34:23.643Z,85.30
2019-03-10T01:34:35.448Z,85.00
2019-03-10T01:34:47.241Z,85.00
2019-03-10T01:35:01.392Z,85.30
2019-03-10T01:35:15.553Z,85.20
2019-03-10T01:35:27.344Z,85.10
2019-03-10T01:35:39.122Z,85.00
2019-03-10T01:35:50.891Z,85.00
2019-03-10T01:36:02.691Z,84.90
2019-03-10T01:36:14.536Z,84.80
2019-03-10T01:36:26.350Z,84.80
2019-03-10T01:36:38.149Z,84.70
2019-03-10T01:36:52.249Z,84.80
2019-03-10T01:37:04.035Z,84.60
2019-03-10T01:37:15.795Z,84.60
2019-03-10T01:37:27.524Z,84.50
2019-03-10T01:37:39.294Z,84.70
2019-03-10T01:37:51.220Z,84.50
2019-03-10T01:38:03.177Z,84.60
2019-03-10T01:38:14.968Z,84.50
2019-03-10T01:38:26.716Z,84.60
2019-03-10T01:38:38.490Z,84.50
2019-03-10T01:38:50.271Z,84.40
2019-03-10T01:39:02.047Z,84.30
2019-03-10T01:39:13.848Z,84.40
2019-03-10T01:39:25.607Z,84.60
2019-03-10T01:39:37.368Z,84.50
2019-03-10T01:39:49.151Z,84.50
2019-03-10T01:40:00.966Z,84.60
2019-03-10T01:40:12.788Z,84.60
2019-03-10T01:40:25.662Z,84.70
2019-03-10T01:40:37.534Z,84.70
2019-03-10T01:40:49.347Z,84.60
2019-03-10T01:41:01.115Z,84.70
2019-03-10T01:41:15.248Z,85.10
2019-03-10T01:41:29.353Z,85.10
2019-03-10T01:41:41.126Z,84.90
2019-03-10T01:41:52.890Z,84.80
2019-03-10T01:42:04.780Z,84.80
2019-03-10T01:42:16.550Z,84.80
2019-03-10T01:42:28.362Z,84.70
2019-03-10T01:42:40.136Z,84.60
2019-03-10T01:42:54.260Z,84.70
2019-03-10T01:43:08.356Z,84.60
2019-03-10T01:43:20.127Z,84.50
2019-03-10T01:43:31.895Z,84.80
2019-03-10T01:43:43.647Z,84.60
2019-03-10T01:43:55.512Z,84.60
2019-03-10T01:44:07.241Z,84.80
2019-03-10T01:44:19.027Z,84.80
2019-03-10T01:44:30.791Z,84.70
2019-03-10T01:44:42.562Z,84.70
2019-03-10T01:44:54.350Z,84.80
2019-03-10T01:45:06.160Z,84.80
2019-03-10T01:45:20.265Z,84.70
2019-03-10T01:45:32.027Z,85.60
2019-03-10T01:45:43.817Z,84.60
2019-03-10T01:45:55.598Z,84.60
2019-03-10T01:46:07.457Z,84.50
2019-03-10T01:46:19.275Z,84.40
2019-03-10T01:46:33.365Z,84.60
2019-03-10T01:46:45.128Z,84.50
2019-03-10T01:46:56.878Z,84.40
2019-03-10T01:47:08.634Z,84.40
2019-03-10T01:47:20.406Z,84.40
2019-03-10T01:47:32.183Z,84.50
2019-03-10T01:47:46.323Z,84.40
2019-03-10T01:48:00.391Z,84.40
2019-03-10T01:48:12.212Z,84.30
2019-03-10T01:48:23.915Z,84.30
2019-03-10T01:48:35.754Z,84.00
2019-03-10T01:48:47.548Z,84.00
2019-03-10T01:48:59.420Z,84.00
2019-03-10T01:49:11.289Z,83.90
2019-03-10T01:49:23.051Z,84.60
2019-03-10T01:49:34.834Z,83.90
2019-03-10T01:49:46.596Z,83.80
2019-03-10T01:49:58.358Z,83.90
2019-03-10T01:50:10.165Z,83.90
2019-03-10T01:50:21.933Z,84.00
2019-03-10T01:50:33.762Z,83.90
2019-03-10T01:50:45.531Z,84.00
2019-03-10T01:50:57.287Z,84.00
2019-03-10T01:51:11.403Z,84.40
2019-03-10T01:51:23.185Z,84.30
2019-03-10T01:51:34.958Z,84.30
2019-03-10T01:51:46.738Z,84.20
2019-03-10T01:51:58.528Z,84.30
2019-03-10T01:52:12.611Z,84.40
2019-03-10T01:52:24.358Z,84.40
2019-03-10T01:52:36.138Z,84.30
2019-03-10T01:52:47.958Z,84.30
2019-03-10T01:52:59.740Z,84.40
2019-03-10T01:53:11.511Z,84.30
2019-03-10T01:53:25.811Z,84.30
2019-03-10T01:53:35.066Z,84.20
2019-03-10T01:53:46.880Z,84.20
2019-03-10T01:53:58.646Z,84.20
2019-03-10T01:54:10.528Z,84.20
2019-03-10T01:54:24.591Z,84.20
2019-03-10T01:54:38.746Z,84.20
2019-03-10T01:54:50.498Z,84.20
2019-03-10T01:55:02.273Z,84.10
2019-03-10T01:55:14.060Z,84.30
2019-03-10T01:55:25.837Z,84.20
2019-03-10T01:55:37.642Z,84.30
2019-03-10T01:55:49.455Z,84.20
2019-03-10T01:56:01.223Z,84.20
2019-03-10T01:56:13.004Z,84.10
2019-03-10T01:56:24.756Z,84.20
2019-03-10T01:56:36.518Z,84.00
2019-03-10T01:56:48.376Z,83.90
2019-03-10T01:57:00.151Z,84.20
2019-03-10T01:57:11.900Z,84.30
2019-03-10T01:57:23.676Z,84.20
2019-03-10T01:57:35.424Z,84.20
2019-03-10T01:57:49.535Z,84.30
2019-03-10T01:58:01.280Z,84.20
2019-03-10T01:58:13.056Z,84.20
2019-03-10T01:58:24.824Z,84.20
2019-03-10T01:58:36.596Z,84.00
2019-03-10T01:58:48.360Z,84.00
2019-03-10T01:59:00.136Z,84.00
2019-03-10T01:59:11.946Z,84.00
2019-03-10T01:59:23.719Z,83.80
2019-03-10T01:59:35.570Z,84.10
2019-03-10T01:59:47.344Z,84.00
2019-03-10T01:59:59.115Z,83.80
2019-03-10T02:00:10.921Z,83.90
2019-03-10T02:00:22.732Z,83.90
2019-03-10T02:00:34.550Z,83.90
2019-03-10T02:00:46.340Z,83.80
2019-03-10T02:00:58.093Z,84.00
2019-03-10T02:01:09.849Z,83.90
2019-03-10T02:01:21.604Z,83.90
2019-03-10T02:01:33.436Z,84.10
2019-03-10T02:01:45.203Z,84.00
2019-03-10T02:01:56.983Z,83.90
2019-03-10T02:02:08.749Z,83.90
2019-03-10T02:02:25.672Z,83.90
2019-03-10T02:02:32.358Z,84.10
2019-03-10T02:02:44.144Z,84.10
2019-03-10T02:02:55.914Z,84.00
2019-03-10T02:03:07.692Z,84.10
2019-03-10T02:03:19.467Z,84.20
2019-03-10T02:03:31.225Z,84.30
2019-03-10T02:03:43.055Z,84.20
2019-03-10T02:03:54.831Z,84.00
2019-03-10T02:04:06.706Z,84.00
2019-03-10T02:04:18.452Z,84.00
2019-03-10T02:04:30.250Z,84.00
2019-03-10T02:04:42.060Z,83.90
2019-03-10T02:04:53.837Z,84.30
2019-03-10T02:05:05.648Z,84.40
2019-03-10T02:05:17.497Z,84.00
2019-03-10T02:05:29.336Z,84.10
2019-03-10T02:05:41.095Z,84.30
2019-03-10T02:05:52.864Z,84.20
2019-03-10T02:06:04.639Z,84.20
2019-03-10T02:06:16.423Z,84.30
2019-03-10T02:06:28.188Z,84.30
2019-03-10T02:06:39.946Z,84.20
2019-03-10T02:06:51.707Z,84.20
2019-03-10T02:07:03.544Z,84.00
2019-03-10T02:07:17.655Z,84.20
2019-03-10T02:07:29.430Z,84.10
2019-03-10T02:07:41.181Z,84.00
2019-03-10T02:07:52.957Z,84.30
2019-03-10T02:08:04.758Z,84.40
2019-03-10T02:08:16.551Z,84.40
2019-03-10T02:08:28.322Z,84.30
2019-03-10T02:08:40.107Z,84.40
2019-03-10T02:08:54.201Z,84.40
2019-03-10T02:09:06.148Z,84.20
2019-03-10T02:09:18.182Z,84.30
2019-03-10T02:09:29.982Z,84.40
2019-03-10T02:09:41.757Z,84.40
2019-03-10T02:09:53.541Z,84.30
2019-03-10T02:10:05.380Z,84.30
2019-03-10T02:10:17.211Z,84.20
2019-03-10T02:10:28.974Z,84.00
2019-03-10T02:10:40.769Z,84.10
2019-03-10T02:10:52.545Z,84.10
2019-03-10T02:11:04.396Z,84.00
2019-03-10T02:11:18.550Z,84.00
2019-03-10T02:11:30.924Z,83.90
2019-03-10T02:11:42.693Z,83.80
2019-03-10T02:11:56.793Z,83.50
2019-03-10T02:12:08.647Z,83.50
2019-03-10T02:12:20.417Z,83.50
2019-03-10T02:12:32.247Z,83.40
2019-03-10T02:12:46.346Z,83.30
2019-03-10T02:12:58.154Z,83.20
2019-03-10T02:13:09.946Z,83.10
2019-03-10T02:13:22.031Z,83.10
2019-03-10T02:13:33.983Z,83.20
2019-03-10T02:13:45.706Z,83.00
2019-03-10T02:13:57.466Z,82.80
2019-03-10T02:14:09.241Z,82.70
2019-03-10T02:14:21.080Z,82.60
2019-03-10T02:14:32.835Z,82.40
2019-03-10T02:14:44.652Z,82.50
2019-03-10T02:14:58.752Z,82.60
2019-03-10T02:15:10.510Z,82.50
2019-03-10T02:15:22.369Z,82.50
2019-03-10T02:15:34.125Z,82.60
2019-03-10T02:15:45.947Z,82.60
2019-03-10T02:15:57.705Z,82.60
2019-03-10T02:16:09.471Z,82.60
2019-03-10T02:16:21.368Z,82.60
2019-03-10T02:16:33.137Z,82.60
2019-03-10T02:16:44.961Z,82.40
2019-03-10T02:16:56.740Z,82.40
2019-03-10T02:17:08.617Z,82.20
2019-03-10T02:17:20.415Z,82.20
2019-03-10T02:17:32.184Z,82.10
2019-03-10T02:17:46.289Z,82.30
2019-03-10T02:17:58.050Z,82.20
2019-03-10T02:18:09.863Z,82.10
2019-03-10T02:18:21.672Z,82.10
2019-03-10T02:18:33.450Z,82.90
2019-03-10T02:18:45.518Z,82.20
2019-03-10T02:18:57.280Z,82.10
2019-03-10T02:19:09.152Z,82.20
2019-03-10T02:19:20.936Z,82.20
2019-03-10T02:19:32.696Z,82.30
2019-03-10T02:19:44.462Z,82.10
2019-03-10T02:19:56.216Z,81.80
2019-03-10T02:20:07.973Z,82.10
2019-03-10T02:20:19.813Z,82.30
2019-03-10T02:20:33.952Z,82.30
2019-03-10T02:20:45.731Z,82.10
2019-03-10T02:20:57.493Z,82.20
2019-03-10T02:21:11.593Z,82.10
2019-03-10T02:21:23.382Z,82.00
2019-03-10T02:21:35.130Z,82.10
2019-03-10T02:21:46.887Z,82.20
2019-03-10T02:21:58.732Z,82.10
2019-03-10T02:22:12.851Z,82.50
2019-03-10T02:22:24.646Z,82.40
2019-03-10T02:22:36.461Z,82.50
2019-03-10T02:22:48.225Z,82.70
2019-03-10T02:23:00.046Z,82.70
2019-03-10T02:23:11.841Z,82.60
2019-03-10T02:23:23.595Z,82.60
2019-03-10T02:23:35.353Z,82.60
2019-03-10T02:23:47.139Z,82.60
2019-03-10T02:23:58.939Z,82.60
2019-03-10T02:24:10.759Z,82.40
2019-03-10T02:24:24.124Z,82.60
2019-03-10T02:24:34.326Z,82.60
2019-03-10T02:24:46.148Z,82.50
2019-03-10T02:24:57.934Z,82.40
2019-03-10T02:25:12.014Z,82.60
2019-03-10T02:25:23.836Z,82.40
2019-03-10T02:25:37.938Z,82.90
2019-03-10T02:25:49.737Z,82.60
2019-03-10T02:26:01.505Z,82.50
2019-03-10T02:26:13.346Z,82.40
2019-03-10T02:26:25.147Z,82.20
2019-03-10T02:26:36.939Z,82.20
2019-03-10T02:26:48.742Z,82.10
2019-03-10T02:27:00.511Z,82.10
2019-03-10T02:27:14.603Z,82.30
2019-03-10T02:27:26.369Z,82.20
2019-03-10T02:27:38.166Z,82.10
2019-03-10T02:27:49.949Z,82.10
2019-03-10T02:28:01.747Z,82.00
2019-03-10T02:28:13.561Z,82.00
2019-03-10T02:28:25.294Z,82.80
2019-03-10T02:28:37.050Z,82.00
2019-03-10T02:28:48.813Z,82.10
2019-03-10T02:29:00.556Z,82.10
2019-03-10T02:29:12.334Z,82.00
2019-03-10T02:29:24.096Z,82.00
2019-03-10T02:29:35.851Z,82.10
2019-03-10T02:29:47.613Z,82.10
2019-03-10T02:29:59.470Z,82.20
2019-03-10T02:30:11.242Z,82.00
2019-03-10T02:30:23.054Z,82.10
2019-03-10T02:30:34.866Z,82.10
2019-03-10T02:30:46.652Z,82.30
2019-03-10T02:30:58.546Z,82.20
2019-03-10T02:31:10.374Z,82.30
2019-03-10T02:31:22.176Z,82.30
2019-03-10T02:31:33.949Z,82.50
2019-03-10T02:31:45.723Z,82.30
2019-03-10T02:31:57.519Z,82.40
2019-03-10T02:32:09.344Z,82.50
2019-03-10T02:32:21.101Z,82.60
2019-03-10T02:32:32.857Z,82.40
2019-03-10T02:32:44.637Z,82.30
2019-03-10T02:32:56.393Z,82.30
2019-03-10T02:33:08.159Z,82.30
2019-03-10T02:33:19.972Z,82.40
2019-03-10T02:33:31.739Z,82.30
2019-03-10T02:33:43.511Z,82.40
2019-03-10T02:33:55.339Z,82.40
2019-03-10T02:34:09.426Z,82.60
2019-03-10T02:34:21.171Z,82.40
2019-03-10T02:34:32.941Z,82.50
2019-03-10T02:34:44.716Z,82.50
2019-03-10T02:34:56.479Z,82.50